createdAt,value
2023-09-18T00:01:31.190Z,3.67
2023-09-18T00:06:34.015Z,3.67
2023-09-18T00:11:36.019Z,3.80
2023-09-18T00:16:51.992Z,3.60
2023-09-18T00:22:02.062Z,3.95
2023-09-18T00:27:04.194Z,3.60
2023-09-18T00:32:06.988Z,3.60
2023-09-18T00:37:08.660Z,4.00
2023-09-18T00:42:14.658Z,3.90
2023-09-18T00:47:16.723Z,4.07
2023-09-18T00:52:18.820Z,4.38
2023-09-18T00:57:21.540Z,3.90
2023-09-18T01:02:23.275Z,3.90
2023-09-18T01:07:24.962Z,4.20
2023-09-18T01:12:32.657Z,3.90
2023-09-18T01:17:39.454Z,3.88
2023-09-18T01:22:41.311Z,4.07
2023-09-18T01:27:43.176Z,4.00
2023-09-18T01:32:45.913Z,3.80
2023-09-18T01:37:47.768Z,3.95
2023-09-18T01:42:49.413Z,4.20
2023-09-18T01:47:51.104Z,4.13
2023-09-18T01:52:53.962Z,4.20
2023-09-18T01:57:56.797Z,4.47
2023-09-18T02:03:09.137Z,4.32
2023-09-18T02:08:20.371Z,3.97
2023-09-18T02:13:22.173Z,4.50
2023-09-18T02:18:23.899Z,4.18
2023-09-18T02:23:25.605Z,4.55
2023-09-18T02:28:27.254Z,4.53
2023-09-18T02:33:29.228Z,4.68
2023-09-18T02:38:33.657Z,4.53
2023-09-18T02:43:35.596Z,4.82
2023-09-18T02:48:37.403Z,4.28
2023-09-18T02:53:39.240Z,4.57
2023-09-18T02:58:40.942Z,4.78
2023-09-18T03:03:43.236Z,4.75
2023-09-18T03:08:45.644Z,4.28
2023-09-18T03:13:48.300Z,4.80
2023-09-18T03:18:52.458Z,5.15
2023-09-18T03:23:54.518Z,4.70
2023-09-18T03:28:56.308Z,4.55
2023-09-18T03:33:58.058Z,4.68
2023-09-18T03:39:00.844Z,4.30
2023-09-18T03:44:03.072Z,5.00
2023-09-18T03:49:04.760Z,4.38
2023-09-18T03:54:09.293Z,4.85
2023-09-18T03:59:10.949Z,4.55
2023-09-18T04:04:12.630Z,4.32
2023-09-18T04:09:16.314Z,4.85
2023-09-18T04:14:18.029Z,4.68
2023-09-18T04:19:19.709Z,5.13
2023-09-18T04:24:21.559Z,5.00
2023-09-18T04:29:23.277Z,5.65
2023-09-18T04:34:25.951Z,4.55
2023-09-18T04:39:27.715Z,5.15
2023-09-18T04:44:29.413Z,5.07
2023-09-18T04:49:31.296Z,5.20
2023-09-18T04:54:33.245Z,4.82
2023-09-18T04:59:35.721Z,5.15
2023-09-18T05:04:37.545Z,5.53
2023-09-18T05:09:41.095Z,5.25
2023-09-18T05:14:44.189Z,5.72
2023-09-18T05:19:45.956Z,5.05
2023-09-18T05:24:47.575Z,5.10
2023-09-18T05:29:49.340Z,5.22
2023-09-18T05:34:50.948Z,4.90
2023-09-18T05:39:52.598Z,5.10
2023-09-18T05:44:54.633Z,5.22
2023-09-18T05:49:56.277Z,4.57
2023-09-18T05:54:57.895Z,4.90
2023-09-18T05:59:59.624Z,4.65
2023-09-18T06:05:02.054Z,4.72
2023-09-18T06:10:04.083Z,5.20
2023-09-18T06:15:10.171Z,5.38
2023-09-18T06:20:17.102Z,5.03
2023-09-18T06:25:19.185Z,5.47
2023-09-18T06:30:20.917Z,4.72
2023-09-18T06:35:22.782Z,5.07
2023-09-18T06:40:24.494Z,5.15
2023-09-18T06:45:26.097Z,4.90
2023-09-18T06:50:27.817Z,5.57
2023-09-18T06:55:29.539Z,5.38
2023-09-18T07:00:31.363Z,5.47
2023-09-18T07:05:33.171Z,5.30
2023-09-18T07:10:36.366Z,5.13
2023-09-18T07:15:38.235Z,5.63
2023-09-18T07:20:40.087Z,5.15
2023-09-18T07:25:44.503Z,5.25
2023-09-18T07:30:46.372Z,5.10
2023-09-18T07:35:49.259Z,5.22
2023-09-18T07:40:51.083Z,5.25
2023-09-18T07:45:54.316Z,4.95
2023-09-18T07:50:56.443Z,4.80
2023-09-18T07:55:59.891Z,5.35
2023-09-18T08:01:04.210Z,5.18
2023-09-18T08:06:06.125Z,5.68
2023-09-18T08:11:12.110Z,4.90
2023-09-18T08:16:15.099Z,5.25
2023-09-18T08:21:18.411Z,4.40
2023-09-18T08:26:20.249Z,4.75
2023-09-18T08:31:21.965Z,4.68
2023-09-18T08:36:23.694Z,4.63
2023-09-18T08:41:28.009Z,4.65
2023-09-18T08:46:31.286Z,4.35
2023-09-18T08:51:35.851Z,4.47
2023-09-18T08:56:37.578Z,4.25
2023-09-18T09:01:39.280Z,4.03
2023-09-18T09:06:40.908Z,3.80
2023-09-18T09:11:50.126Z,4.22
2023-09-18T09:16:52.443Z,4.07
2023-09-18T09:21:54.955Z,3.90
2023-09-18T09:27:00.532Z,4.28
2023-09-18T09:32:22.452Z,3.70
2023-09-18T09:37:32.097Z,3.58
2023-09-18T09:42:40.176Z,3.85
2023-09-18T09:47:41.957Z,3.70
2023-09-18T09:52:54.109Z,3.85
2023-09-18T09:58:01.008Z,3.83
2023-09-18T10:03:05.026Z,3.63
2023-09-18T10:08:09.466Z,3.70
2023-09-18T10:13:14.070Z,3.90
2023-09-18T10:18:27.633Z,4.20
2023-09-18T10:23:48.136Z,4.00
2023-09-18T10:28:54.107Z,3.80
2023-09-18T10:34:00.447Z,3.80
2023-09-18T10:39:02.315Z,3.83
2023-09-18T10:44:05.459Z,3.22
2023-09-18T10:49:07.293Z,3.90
2023-09-18T10:54:11.717Z,3.88
2023-09-18T10:59:17.135Z,3.63
2023-09-18T11:04:20.061Z,3.20
2023-09-18T11:09:29.367Z,3.40
2023-09-18T11:14:55.865Z,3.95
2023-09-18T11:20:05.591Z,4.60
2023-09-18T11:25:52.261Z,4.03
2023-09-18T11:31:02.638Z,3.97
2023-09-18T11:36:08.313Z,4.07
2023-09-18T11:41:29.693Z,4.50
2023-09-18T11:46:31.988Z,4.68
2023-09-18T11:51:33.977Z,4.10
2023-09-18T11:56:36.889Z,4.30
2023-09-18T12:01:40.704Z,4.80
2023-09-18T12:06:43.670Z,4.28
2023-09-18T12:11:46.015Z,4.80
2023-09-18T12:16:51.185Z,4.65
2023-09-18T12:21:52.886Z,4.68
2023-09-18T12:26:55.413Z,4.90
2023-09-18T12:31:57.281Z,4.47
2023-09-18T12:37:00.072Z,4.60
2023-09-18T12:42:01.866Z,4.50
2023-09-18T12:47:04.917Z,4.63
2023-09-18T12:52:09.973Z,4.68
2023-09-18T12:57:11.831Z,4.72
2023-09-18T13:02:18.831Z,4.60
2023-09-18T13:07:20.603Z,4.60
2023-09-18T13:12:22.238Z,4.97
2023-09-18T13:17:25.151Z,4.50
2023-09-18T13:22:27.187Z,4.90
2023-09-18T13:27:28.895Z,4.75
2023-09-18T13:32:30.637Z,4.93
2023-09-18T13:37:34.007Z,4.70
2023-09-18T13:42:38.112Z,4.38
2023-09-18T13:47:40.029Z,4.97
2023-09-18T13:52:41.786Z,4.80
2023-09-18T13:57:43.417Z,4.13
2023-09-18T14:02:45.099Z,4.60
2023-09-18T14:07:47.247Z,4.38
2023-09-18T14:12:48.915Z,4.95
2023-09-18T14:17:50.689Z,4.90
2023-09-18T14:22:52.410Z,4.50
2023-09-18T14:27:54.279Z,3.20
2023-09-18T14:32:56.008Z,3.05
2023-09-18T14:37:57.740Z,3.45
2023-09-18T14:42:59.350Z,2.92
2023-09-18T14:48:01.042Z,2.40
2023-09-18T14:53:04.786Z,3.00
2023-09-18T14:58:07.324Z,2.53
2023-09-18T15:03:09.036Z,2.80
2023-09-18T15:08:11.251Z,2.72
2023-09-18T15:13:14.987Z,2.90
2023-09-18T15:18:16.818Z,3.20
2023-09-18T15:23:18.618Z,2.78
2023-09-18T15:28:21.011Z,2.67
2023-09-18T15:33:23.652Z,2.25
2023-09-18T15:38:25.906Z,1.63
2023-09-18T15:43:28.950Z,1.73
2023-09-18T15:48:30.713Z,1.25
2023-09-18T15:53:32.412Z,2.80
2023-09-18T15:58:35.490Z,1.25
2023-09-18T16:03:37.575Z,1.60
2023-09-18T16:08:39.499Z,1.30
2023-09-18T16:13:41.222Z,1.50
2023-09-18T16:18:43.447Z,1.60
2023-09-18T16:23:45.167Z,1.70
2023-09-18T16:28:48.147Z,1.60
2023-09-18T16:33:49.845Z,1.92
2023-09-18T16:38:51.821Z,1.60
2023-09-18T16:43:53.500Z,1.95
2023-09-18T16:48:56.377Z,1.63
2023-09-18T16:53:59.948Z,1.70
2023-09-18T16:59:02.043Z,1.50
2023-09-18T17:04:04.127Z,1.92
2023-09-18T17:09:08.554Z,2.13
2023-09-18T17:14:10.833Z,1.77
2023-09-18T17:19:14.004Z,2.00
2023-09-18T17:24:15.684Z,2.05
2023-09-18T17:29:18.185Z,1.73
2023-09-18T17:34:19.827Z,2.03
2023-09-18T17:39:23.808Z,1.80
2023-09-18T17:44:25.436Z,2.10
2023-09-18T17:49:27.063Z,2.15
2023-09-18T17:54:28.678Z,2.10
2023-09-18T17:59:30.729Z,2.00
2023-09-18T18:04:32.941Z,2.00
2023-09-18T18:09:34.658Z,2.33
2023-09-18T18:14:36.305Z,2.33
2023-09-18T18:19:38.027Z,2.35
2023-09-18T18:24:39.977Z,2.08
2023-09-18T18:29:41.692Z,2.17
2023-09-18T18:34:45.994Z,2.00
2023-09-18T18:39:47.732Z,2.13
2023-09-18T18:44:49.647Z,2.45
2023-09-18T18:49:51.488Z,2.05
2023-09-18T18:54:53.122Z,1.90
2023-09-18T18:59:54.747Z,2.08
2023-09-18T19:04:56.421Z,1.80
2023-09-18T19:09:59.827Z,1.88
2023-09-18T19:15:02.572Z,1.80
2023-09-18T19:20:05.882Z,1.60
2023-09-18T19:25:07.890Z,1.70
2023-09-18T19:30:09.861Z,2.10
2023-09-18T19:35:11.518Z,2.17
2023-09-18T19:40:14.895Z,2.03
2023-09-18T19:45:16.731Z,1.80
2023-09-18T19:50:18.515Z,2.10
2023-09-18T19:55:28.920Z,2.47
2023-09-18T20:00:31.199Z,2.20
2023-09-18T20:05:33.938Z,1.80
2023-09-18T20:10:35.699Z,1.70
2023-09-18T20:15:37.315Z,1.92
2023-09-18T20:20:39.039Z,1.67
2023-09-18T20:25:40.647Z,1.85
2023-09-18T20:30:42.896Z,2.30
2023-09-18T20:35:44.619Z,1.85
2023-09-18T20:40:46.294Z,1.80
2023-09-18T20:45:47.892Z,1.88
2023-09-18T20:50:49.942Z,2.05
2023-09-18T20:55:51.576Z,1.50
2023-09-18T21:00:53.166Z,1.65
2023-09-18T21:05:55.764Z,1.48
2023-09-18T21:10:59.040Z,1.73
2023-09-18T21:16:04.352Z,1.67
2023-09-18T21:21:16.035Z,1.70
2023-09-18T21:26:18.110Z,1.73
2023-09-18T21:31:22.289Z,1.42
2023-09-18T21:36:27.744Z,1.20
2023-09-18T21:41:29.421Z,1.70
2023-09-18T21:46:33.100Z,1.45
2023-09-18T21:51:37.365Z,1.38
2023-09-18T21:56:39.043Z,1.23
2023-09-18T22:01:40.920Z,1.40
2023-09-18T22:06:42.535Z,1.38
2023-09-18T22:11:44.105Z,0.98
2023-09-18T22:16:45.755Z,1.17
2023-09-18T22:21:48.672Z,1.10
2023-09-18T22:26:50.374Z,1.40
2023-09-18T22:31:54.547Z,1.60
2023-09-18T22:36:56.288Z,1.50
2023-09-18T22:41:59.182Z,1.60
2023-09-18T22:47:38.505Z,1.40
2023-09-18T22:52:46.179Z,1.85
2023-09-18T22:57:56.045Z,1.88
2023-09-18T23:03:00.203Z,2.45
2023-09-18T23:08:08.580Z,2.53
2023-09-18T23:13:12.025Z,2.75
2023-09-18T23:18:17.416Z,3.22
2023-09-18T23:23:19.189Z,3.58
2023-09-18T23:28:21.133Z,3.13
2023-09-18T23:33:23.651Z,3.50
2023-09-18T23:38:29.824Z,4.10
2023-09-18T23:43:34.936Z,4.00
2023-09-18T23:48:36.668Z,3.42
2023-09-18T23:53:38.649Z,3.60
2023-09-18T23:58:41.703Z,3.50
